Hlavní strana
METAR-TAF:

METAR-TAF

Letiště :

Ouarzazate, Maroko

zeměpisná šířka: 30-56N, zeměpisná délka: 006-54W, výška: 1139 m

Aktuální stav počasí

Zpráva byla vytvořena před 18 minutami, v 03:00 UTC
Východojihovýchodní vítr 5 kt
Teplota 17°C
Vlhkost vzduchu 17%
Tlak 1014 hPa
Viditelnost 10 km a více
Žádná oblačnost pod 1500 m, nevyskytují se cumulonimby.

METAR: GMMZ 040300Z 12005KT CAVOK 17/M08 Q1014 NOSIG

Čas: 04:18 (03:18 UTC)

Předpověď počasí

Zpráva byla vytvořena před 4 hodinami a 18 minutami, v 23:00 UTC
Předpověď platná od 04 v 00 UTC do 05 v 06 UTC
Jihojihovýchodní vítr 4 kt
Viditelnost 10 km a více
Žádná oblačnost pod 1500 m, nevyskytují se cumulonimby.

TAF: GMMZ 032300Z 0400/0506 15004KT CAVOK

Stav a předpovědi počasí z více než 4 000 letišť (zprávy METAR a TAF).

Červené a žluté tečky na mapě představují dostupné meteorologické stanice.

Když kurzor umístíte na tečku, zobrazí se název stanice.

Pak kliknutím zobrazíte stav a předpověď počasí.

Chcete-li změnit mapu, kliknutím na zelené tlačítko se znaménkem +mapu přiblížíte, kliknutím na zelené tlačítko se znaménkem – mapu oddálíte a kliknutím na zelené šipky přejdete na sousední mapy.


METAR-TAF: